sensor_id;sensor_type;location;lat;lon;timestamp;temperature;humidity
66576;SHT31;53428;47.686;16.584;2022-09-09T00:01:59;15.17;84.90
66576;SHT31;53428;47.686;16.584;2022-09-09T00:23:32;14.55;87.12
66576;SHT31;53428;47.686;16.584;2022-09-09T00:28:39;14.45;86.89
66576;SHT31;53428;47.686;16.584;2022-09-09T00:33:39;14.59;86.44
66576;SHT31;53428;47.686;16.584;2022-09-09T00:38:43;14.46;86.70
66576;SHT31;53428;47.686;16.584;2022-09-09T00:43:54;14.39;86.48
66576;SHT31;53428;47.686;16.584;2022-09-09T00:49:15;14.11;87.82
66576;SHT31;53428;47.686;16.584;2022-09-09T00:59:48;13.87;88.53
66576;SHT31;53428;47.686;16.584;2022-09-09T01:04:49;13.80;88.53
66576;SHT31;53428;47.686;16.584;2022-09-09T01:09:56;13.74;88.57
66576;SHT31;53428;47.686;16.584;2022-09-09T01:15:12;13.59;88.69
66576;SHT31;53428;47.686;16.584;2022-09-09T01:25:25;13.55;88.66
66576;SHT31;53428;47.686;16.584;2022-09-09T01:30:28;13.53;88.27
66576;SHT31;53428;47.686;16.584;2022-09-09T01:40:50;13.56;87.94
66576;SHT31;53428;47.686;16.584;2022-09-09T01:45:53;13.52;87.72
66576;SHT31;53428;47.686;16.584;2022-09-09T01:50:53;13.42;87.84
66576;SHT31;53428;47.686;16.584;2022-09-09T02:01:15;13.58;87.39
66576;SHT31;53428;47.686;16.584;2022-09-09T02:11:27;13.56;86.81
66576;SHT31;53428;47.686;16.584;2022-09-09T02:16:43;13.43;87.55
66576;SHT31;53428;47.686;16.584;2022-09-09T02:21:44;13.28;87.74
66576;SHT31;53428;47.686;16.584;2022-09-09T02:26:46;13.26;87.71
66576;SHT31;53428;47.686;16.584;2022-09-09T02:31:53;13.35;87.53
66576;SHT31;53428;47.686;16.584;2022-09-09T02:36:57;13.56;86.64
66576;SHT31;53428;47.686;16.584;2022-09-09T02:41:59;13.46;86.78
66576;SHT31;53428;47.686;16.584;2022-09-09T02:47:34;13.56;86.37
66576;SHT31;53428;47.686;16.584;2022-09-09T02:57:58;13.74;85.72
66576;SHT31;53428;47.686;16.584;2022-09-09T03:02:59;13.97;85.15
66576;SHT31;53428;47.686;16.584;2022-09-09T03:07:58;14.04;85.05
66576;SHT31;53428;47.686;16.584;2022-09-09T03:12:58;14.00;85.06
66576;SHT31;53428;47.686;16.584;2022-09-09T03:17:58;14.06;85.05
66576;SHT31;53428;47.686;16.584;2022-09-09T03:22:59;14.06;84.99
66576;SHT31;53428;47.686;16.584;2022-09-09T03:27:59;14.10;84.94
66576;SHT31;53428;47.686;16.584;2022-09-09T03:32:58;13.98;85.22
66576;SHT31;53428;47.686;16.584;2022-09-09T03:37:57;13.91;85.41
66576;SHT31;53428;47.686;16.584;2022-09-09T03:42:56;13.98;85.47
66576;SHT31;53428;47.686;16.584;2022-09-09T03:47:56;14.03;85.52
66576;SHT31;53428;47.686;16.584;2022-09-09T03:52:55;13.94;85.80
66576;SHT31;53428;47.686;16.584;2022-09-09T03:57:55;13.87;85.98
66576;SHT31;53428;47.686;16.584;2022-09-09T04:02:54;13.83;86.20
66576;SHT31;53428;47.686;16.584;2022-09-09T04:07:56;13.93;86.51
66576;SHT31;53428;47.686;16.584;2022-09-09T04:12:56;14.04;85.76
66576;SHT31;53428;47.686;16.584;2022-09-09T04:17:55;13.86;86.12
66576;SHT31;53428;47.686;16.584;2022-09-09T04:22:54;13.74;86.45
66576;SHT31;53428;47.686;16.584;2022-09-09T04:27:57;13.66;86.66
66576;SHT31;53428;47.686;16.584;2022-09-09T04:32:57;13.76;86.40
66576;SHT31;53428;47.686;16.584;2022-09-09T04:37:56;13.69;86.73
66576;SHT31;53428;47.686;16.584;2022-09-09T04:42:58;13.77;86.26
66576;SHT31;53428;47.686;16.584;2022-09-09T04:47:57;13.81;85.91
66576;SHT31;53428;47.686;16.584;2022-09-09T04:53:00;13.88;85.48
66576;SHT31;53428;47.686;16.584;2022-09-09T04:58:07;13.83;85.79
66576;SHT31;53428;47.686;16.584;2022-09-09T05:03:07;13.84;85.78
66576;SHT31;53428;47.686;16.584;2022-09-09T05:08:08;13.97;85.72
66576;SHT31;53428;47.686;16.584;2022-09-09T05:13:08;14.14;84.76
66576;SHT31;53428;47.686;16.584;2022-09-09T05:18:07;14.27;84.37
66576;SHT31;53428;47.686;16.584;2022-09-09T05:23:08;14.42;83.97
66576;SHT31;53428;47.686;16.584;2022-09-09T05:28:09;14.55;83.46
66576;SHT31;53428;47.686;16.584;2022-09-09T05:33:08;14.39;83.78
66576;SHT31;53428;47.686;16.584;2022-09-09T05:38:08;14.17;83.45
66576;SHT31;53428;47.686;16.584;2022-09-09T05:43:07;14.10;84.06
66576;SHT31;53428;47.686;16.584;2022-09-09T05:48:07;14.34;83.10
66576;SHT31;53428;47.686;16.584;2022-09-09T05:53:06;14.58;82.31
66576;SHT31;53428;47.686;16.584;2022-09-09T05:58:05;14.79;81.65
66576;SHT31;53428;47.686;16.584;2022-09-09T06:03:05;15.20;80.72
66576;SHT31;53428;47.686;16.584;2022-09-09T06:08:04;15.61;79.60
66576;SHT31;53428;47.686;16.584;2022-09-09T06:13:03;15.98;78.62
66576;SHT31;53428;47.686;16.584;2022-09-09T06:18:02;16.31;77.91
66576;SHT31;53428;47.686;16.584;2022-09-09T06:23:03;16.93;75.83
66576;SHT31;53428;47.686;16.584;2022-09-09T06:28:02;17.51;73.92
66576;SHT31;53428;47.686;16.584;2022-09-09T06:33:01;17.99;72.37
66576;SHT31;53428;47.686;16.584;2022-09-09T06:38:00;18.39;70.69
66576;SHT31;53428;47.686;16.584;2022-09-09T06:43:00;18.74;70.33
66576;SHT31;53428;47.686;16.584;2022-09-09T06:48:00;19.39;68.22
66576;SHT31;53428;47.686;16.584;2022-09-09T06:52:59;19.59;67.42
66576;SHT31;53428;47.686;16.584;2022-09-09T06:57:58;19.77;66.98
66576;SHT31;53428;47.686;16.584;2022-09-09T07:02:58;19.97;66.91
66576;SHT31;53428;47.686;16.584;2022-09-09T07:07:57;20.13;66.67
66576;SHT31;53428;47.686;16.584;2022-09-09T07:12:57;20.17;66.50
66576;SHT31;53428;47.686;16.584;2022-09-09T07:18:00;20.04;66.79
66576;SHT31;53428;47.686;16.584;2022-09-09T07:23:00;19.91;66.52
66576;SHT31;53428;47.686;16.584;2022-09-09T07:27:59;19.91;66.44
66576;SHT31;53428;47.686;16.584;2022-09-09T07:32:58;20.07;66.31
66576;SHT31;53428;47.686;16.584;2022-09-09T07:37:58;20.13;65.06
66576;SHT31;53428;47.686;16.584;2022-09-09T07:43:00;20.08;65.95
66576;SHT31;53428;47.686;16.584;2022-09-09T07:47:59;20.08;65.91
66576;SHT31;53428;47.686;16.584;2022-09-09T07:52:58;20.35;64.98
66576;SHT31;53428;47.686;16.584;2022-09-09T07:57:58;20.72;64.25
66576;SHT31;53428;47.686;16.584;2022-09-09T08:02:57;21.07;62.81
66576;SHT31;53428;47.686;16.584;2022-09-09T08:07:57;21.11;62.19
66576;SHT31;53428;47.686;16.584;2022-09-09T08:12:56;21.47;62.99
66576;SHT31;53428;47.686;16.584;2022-09-09T08:17:56;21.82;62.06
66576;SHT31;53428;47.686;16.584;2022-09-09T08:22:55;21.92;61.34
66576;SHT31;53428;47.686;16.584;2022-09-09T08:27:54;22.14;60.93
66576;SHT31;53428;47.686;16.584;2022-09-09T08:32:54;22.44;59.37
66576;SHT31;53428;47.686;16.584;2022-09-09T08:37:54;22.63;58.91
66576;SHT31;53428;47.686;16.584;2022-09-09T08:42:57;22.67;59.33
66576;SHT31;53428;47.686;16.584;2022-09-09T08:53:39;22.67;58.41
66576;SHT31;53428;47.686;16.584;2022-09-09T08:58:52;23.26;57.08
66576;SHT31;53428;47.686;16.584;2022-09-09T09:14:33;23.87;56.28
66576;SHT31;53428;47.686;16.584;2022-09-09T09:19:34;24.42;54.50
66576;SHT31;53428;47.686;16.584;2022-09-09T09:24:53;24.66;55.50
66576;SHT31;53428;47.686;16.584;2022-09-09T09:29:54;25.08;54.22
66576;SHT31;53428;47.686;16.584;2022-09-09T09:34:58;24.90;53.53
66576;SHT31;53428;47.686;16.584;2022-09-09T09:40:15;24.77;54.25
66576;SHT31;53428;47.686;16.584;2022-09-09T09:45:43;24.87;54.23
66576;SHT31;53428;47.686;16.584;2022-09-09T09:50:57;24.98;53.77
66576;SHT31;53428;47.686;16.584;2022-09-09T09:55:59;25.13;53.58
66576;SHT31;53428;47.686;16.584;2022-09-09T10:01:00;26.04;51.74
66576;SHT31;53428;47.686;16.584;2022-09-09T10:06:00;25.76;52.31
66576;SHT31;53428;47.686;16.584;2022-09-09T10:16:29;26.29;51.03
66576;SHT31;53428;47.686;16.584;2022-09-09T10:21:49;26.74;50.10
66576;SHT31;53428;47.686;16.584;2022-09-09T10:27:03;25.02;52.95
66576;SHT31;53428;47.686;16.584;2022-09-09T10:42:28;26.82;49.41
66576;SHT31;53428;47.686;16.584;2022-09-09T10:47:52;26.43;50.21
66576;SHT31;53428;47.686;16.584;2022-09-09T10:57:58;28.69;45.34
66576;SHT31;53428;47.686;16.584;2022-09-09T11:03:02;27.98;47.08
66576;SHT31;53428;47.686;16.584;2022-09-09T11:08:08;27.34;48.71
66576;SHT31;53428;47.686;16.584;2022-09-09T11:13:23;27.25;48.87
66576;SHT31;53428;47.686;16.584;2022-09-09T11:18:25;27.97;47.05
66576;SHT31;53428;47.686;16.584;2022-09-09T11:23:49;29.17;44.70
66576;SHT31;53428;47.686;16.584;2022-09-09T11:33:58;29.49;45.05
66576;SHT31;53428;47.686;16.584;2022-09-09T11:39:36;31.16;41.18
66576;SHT31;53428;47.686;16.584;2022-09-09T11:44:36;30.13;43.43
66576;SHT31;53428;47.686;16.584;2022-09-09T11:54:47;29.97;42.29
66576;SHT31;53428;47.686;16.584;2022-09-09T11:59:51;29.66;42.57
66576;SHT31;53428;47.686;16.584;2022-09-09T12:05:17;28.90;43.68
66576;SHT31;53428;47.686;16.584;2022-09-09T12:10:28;27.98;45.57
66576;SHT31;53428;47.686;16.584;2022-09-09T12:15:29;28.83;44.09
66576;SHT31;53428;47.686;16.584;2022-09-09T12:20:35;28.80;43.45
66576;SHT31;53428;47.686;16.584;2022-09-09T12:31:10;29.92;41.77
66576;SHT31;53428;47.686;16.584;2022-09-09T12:36:19;28.83;44.20
66576;SHT31;53428;47.686;16.584;2022-09-09T12:41:27;29.34;43.59
66576;SHT31;53428;47.686;16.584;2022-09-09T12:46:48;27.94;46.34
66576;SHT31;53428;47.686;16.584;2022-09-09T12:51:48;27.92;46.11
66576;SHT31;53428;47.686;16.584;2022-09-09T12:56:48;28.15;45.29
66576;SHT31;53428;47.686;16.584;2022-09-09T13:01:56;28.74;43.78
66576;SHT31;53428;47.686;16.584;2022-09-09T13:07:06;29.61;43.88
66576;SHT31;53428;47.686;16.584;2022-09-09T13:12:20;29.96;42.89
66576;SHT31;53428;47.686;16.584;2022-09-09T13:17:23;28.80;44.98
66576;SHT31;53428;47.686;16.584;2022-09-09T13:22:33;28.70;45.75
66576;SHT31;53428;47.686;16.584;2022-09-09T13:27:36;29.05;44.70
66576;SHT31;53428;47.686;16.584;2022-09-09T13:32:38;28.87;45.01
66576;SHT31;53428;47.686;16.584;2022-09-09T13:37:38;27.44;47.92
66576;SHT31;53428;47.686;16.584;2022-09-09T13:42:41;26.71;49.23
66576;SHT31;53428;47.686;16.584;2022-09-09T13:47:41;26.13;50.77
66576;SHT31;53428;47.686;16.584;2022-09-09T13:52:40;26.45;49.87
66576;SHT31;53428;47.686;16.584;2022-09-09T13:57:50;26.07;50.71
66576;SHT31;53428;47.686;16.584;2022-09-09T14:02:50;25.51;52.35
66576;SHT31;53428;47.686;16.584;2022-09-09T14:07:50;25.24;52.44
66576;SHT31;53428;47.686;16.584;2022-09-09T14:12:49;25.06;53.08
66576;SHT31;53428;47.686;16.584;2022-09-09T14:17:48;24.80;53.95
66576;SHT31;53428;47.686;16.584;2022-09-09T14:22:48;24.69;53.68
66576;SHT31;53428;47.686;16.584;2022-09-09T14:27:47;24.63;53.97
66576;SHT31;53428;47.686;16.584;2022-09-09T14:32:46;24.67;53.87
66576;SHT31;53428;47.686;16.584;2022-09-09T14:37:46;24.70;53.75
66576;SHT31;53428;47.686;16.584;2022-09-09T14:42:45;24.48;54.26
66576;SHT31;53428;47.686;16.584;2022-09-09T14:47:45;24.59;53.79
66576;SHT31;53428;47.686;16.584;2022-09-09T14:52:45;24.76;52.47
66576;SHT31;53428;47.686;16.584;2022-09-09T14:57:44;24.29;53.31
66576;SHT31;53428;47.686;16.584;2022-09-09T15:02:44;24.11;53.96
66576;SHT31;53428;47.686;16.584;2022-09-09T15:07:43;24.29;53.28
66576;SHT31;53428;47.686;16.584;2022-09-09T15:12:43;24.18;53.02
66576;SHT31;53428;47.686;16.584;2022-09-09T15:17:43;24.14;52.95
66576;SHT31;53428;47.686;16.584;2022-09-09T15:22:42;24.07;53.34
66576;SHT31;53428;47.686;16.584;2022-09-09T15:27:41;23.90;53.74
66576;SHT31;53428;47.686;16.584;2022-09-09T15:32:41;23.78;54.30
66576;SHT31;53428;47.686;16.584;2022-09-09T15:37:41;23.73;53.55
66576;SHT31;53428;47.686;16.584;2022-09-09T15:42:40;23.78;54.01
66576;SHT31;53428;47.686;16.584;2022-09-09T15:47:39;23.81;53.41
66576;SHT31;53428;47.686;16.584;2022-09-09T15:52:39;23.80;55.31
66576;SHT31;53428;47.686;16.584;2022-09-09T15:57:38;23.66;57.13
66576;SHT31;53428;47.686;16.584;2022-09-09T16:02:37;23.63;57.31
66576;SHT31;53428;47.686;16.584;2022-09-09T16:07:36;23.63;57.30
66576;SHT31;53428;47.686;16.584;2022-09-09T16:12:36;23.47;58.50
66576;SHT31;53428;47.686;16.584;2022-09-09T16:17:35;23.32;60.07
66576;SHT31;53428;47.686;16.584;2022-09-09T16:22:36;23.23;60.61
66576;SHT31;53428;47.686;16.584;2022-09-09T16:27:36;23.12;60.83
66576;SHT31;53428;47.686;16.584;2022-09-09T16:32:36;23.04;61.34
66576;SHT31;53428;47.686;16.584;2022-09-09T16:37:35;22.87;63.07
66576;SHT31;53428;47.686;16.584;2022-09-09T16:42:34;22.71;63.85
66576;SHT31;53428;47.686;16.584;2022-09-09T16:47:34;22.58;63.99
66576;SHT31;53428;47.686;16.584;2022-09-09T16:52:33;22.54;63.94
66576;SHT31;53428;47.686;16.584;2022-09-09T16:57:32;22.48;62.98
66576;SHT31;53428;47.686;16.584;2022-09-09T17:02:32;22.37;63.44
66576;SHT31;53428;47.686;16.584;2022-09-09T17:07:31;21.85;66.28
66576;SHT31;53428;47.686;16.584;2022-09-09T17:12:32;21.35;68.73
66576;SHT31;53428;47.686;16.584;2022-09-09T17:17:31;20.72;71.92
66576;SHT31;53428;47.686;16.584;2022-09-09T17:22:31;20.29;74.01
66576;SHT31;53428;47.686;16.584;2022-09-09T17:27:31;20.18;73.19
66576;SHT31;53428;47.686;16.584;2022-09-09T17:32:31;20.14;73.12
66576;SHT31;53428;47.686;16.584;2022-09-09T17:37:30;20.10;73.46
66576;SHT31;53428;47.686;16.584;2022-09-09T17:42:30;19.87;75.01
66576;SHT31;53428;47.686;16.584;2022-09-09T17:47:29;19.51;76.61
66576;SHT31;53428;47.686;16.584;2022-09-09T17:52:29;19.10;77.79
66576;SHT31;53428;47.686;16.584;2022-09-09T17:57:29;18.68;79.16
66576;SHT31;53428;47.686;16.584;2022-09-09T18:02:29;18.37;81.80
66576;SHT31;53428;47.686;16.584;2022-09-09T18:07:28;18.22;83.26
66576;SHT31;53428;47.686;16.584;2022-09-09T18:12:27;17.98;84.98
66576;SHT31;53428;47.686;16.584;2022-09-09T18:17:27;17.84;85.92
66576;SHT31;53428;47.686;16.584;2022-09-09T18:22:28;17.84;86.12
66576;SHT31;53428;47.686;16.584;2022-09-09T18:27:29;17.82;85.82
66576;SHT31;53428;47.686;16.584;2022-09-09T18:32:29;17.75;85.44
66576;SHT31;53428;47.686;16.584;2022-09-09T18:37:28;17.74;85.22
66576;SHT31;53428;47.686;16.584;2022-09-09T18:42:31;17.71;85.05
66576;SHT31;53428;47.686;16.584;2022-09-09T18:47:32;17.73;84.79
66576;SHT31;53428;47.686;16.584;2022-09-09T18:52:32;17.61;85.36
66576;SHT31;53428;47.686;16.584;2022-09-09T18:57:31;17.49;85.66
66576;SHT31;53428;47.686;16.584;2022-09-09T19:02:31;17.50;85.16
66576;SHT31;53428;47.686;16.584;2022-09-09T19:07:31;17.49;84.91
66576;SHT31;53428;47.686;16.584;2022-09-09T19:12:30;17.47;84.85
66576;SHT31;53428;47.686;16.584;2022-09-09T19:17:29;17.40;85.01
66576;SHT31;53428;47.686;16.584;2022-09-09T19:22:29;17.37;85.02
66576;SHT31;53428;47.686;16.584;2022-09-09T19:27:29;17.36;85.38
66576;SHT31;53428;47.686;16.584;2022-09-09T19:32:28;17.30;85.43
66576;SHT31;53428;47.686;16.584;2022-09-09T19:37:28;17.33;85.22
66576;SHT31;53428;47.686;16.584;2022-09-09T19:42:28;17.34;85.16
66576;SHT31;53428;47.686;16.584;2022-09-09T19:47:29;17.40;84.97
66576;SHT31;53428;47.686;16.584;2022-09-09T19:52:28;17.34;84.86
66576;SHT31;53428;47.686;16.584;2022-09-09T19:57:29;17.40;84.55
66576;SHT31;53428;47.686;16.584;2022-09-09T20:02:28;17.34;84.64
66576;SHT31;53428;47.686;16.584;2022-09-09T20:07:29;17.18;85.72
66576;SHT31;53428;47.686;16.584;2022-09-09T20:12:28;16.93;87.20
66576;SHT31;53428;47.686;16.584;2022-09-09T20:17:28;16.84;87.84
66576;SHT31;53428;47.686;16.584;2022-09-09T20:22:27;16.85;87.70
66576;SHT31;53428;47.686;16.584;2022-09-09T20:27:26;16.92;87.69
66576;SHT31;53428;47.686;16.584;2022-09-09T20:32:26;16.98;87.19
66576;SHT31;53428;47.686;16.584;2022-09-09T20:37:25;16.96;87.34
66576;SHT31;53428;47.686;16.584;2022-09-09T20:42:25;16.95;87.27
66576;SHT31;53428;47.686;16.584;2022-09-09T20:47:24;16.81;88.13
66576;SHT31;53428;47.686;16.584;2022-09-09T20:52:24;16.82;88.34
66576;SHT31;53428;47.686;16.584;2022-09-09T20:57:23;16.82;88.49
66576;SHT31;53428;47.686;16.584;2022-09-09T21:02:23;16.82;88.81
66576;SHT31;53428;47.686;16.584;2022-09-09T21:07:22;16.71;89.50
66576;SHT31;53428;47.686;16.584;2022-09-09T21:12:22;16.69;89.67
66576;SHT31;53428;47.686;16.584;2022-09-09T21:17:22;16.72;89.51
66576;SHT31;53428;47.686;16.584;2022-09-09T21:22:21;16.69;90.00
66576;SHT31;53428;47.686;16.584;2022-09-09T21:27:21;16.67;90.49
66576;SHT31;53428;47.686;16.584;2022-09-09T21:32:21;16.71;90.46
66576;SHT31;53428;47.686;16.584;2022-09-09T21:37:20;16.72;90.64
66576;SHT31;53428;47.686;16.584;2022-09-09T21:42:19;16.76;90.45
66576;SHT31;53428;47.686;16.584;2022-09-09T21:47:19;16.79;90.38
66576;SHT31;53428;47.686;16.584;2022-09-09T21:52:18;16.71;90.89
66576;SHT31;53428;47.686;16.584;2022-09-09T21:57:18;16.76;90.64
66576;SHT31;53428;47.686;16.584;2022-09-09T22:02:18;16.78;90.62
66576;SHT31;53428;47.686;16.584;2022-09-09T22:07:19;16.81;90.27
66576;SHT31;53428;47.686;16.584;2022-09-09T22:12:19;16.79;89.98
66576;SHT31;53428;47.686;16.584;2022-09-09T22:17:19;16.63;91.28
66576;SHT31;53428;47.686;16.584;2022-09-09T22:22:19;16.47;91.82
66576;SHT31;53428;47.686;16.584;2022-09-09T22:27:18;16.51;91.43
66576;SHT31;53428;47.686;16.584;2022-09-09T22:32:18;16.51;90.88
66576;SHT31;53428;47.686;16.584;2022-09-09T22:37:17;16.54;90.52
66576;SHT31;53428;47.686;16.584;2022-09-09T22:42:17;16.47;90.56
66576;SHT31;53428;47.686;16.584;2022-09-09T22:47:17;16.50;90.51
66576;SHT31;53428;47.686;16.584;2022-09-09T22:52:17;16.51;90.30
66576;SHT31;53428;47.686;16.584;2022-09-09T22:57:16;16.41;90.77
66576;SHT31;53428;47.686;16.584;2022-09-09T23:02:15;16.33;91.47
66576;SHT31;53428;47.686;16.584;2022-09-09T23:07:15;16.13;92.83
66576;SHT31;53428;47.686;16.584;2022-09-09T23:12:19;15.72;94.45
66576;SHT31;53428;47.686;16.584;2022-09-09T23:17:20;15.59;96.18
66576;SHT31;53428;47.686;16.584;2022-09-09T23:22:19;15.42;97.13
66576;SHT31;53428;47.686;16.584;2022-09-09T23:27:19;15.40;97.38
66576;SHT31;53428;47.686;16.584;2022-09-09T23:32:22;15.38;97.62
66576;SHT31;53428;47.686;16.584;2022-09-09T23:37:22;15.35;97.84
66576;SHT31;53428;47.686;16.584;2022-09-09T23:42:21;15.30;97.65
66576;SHT31;53428;47.686;16.584;2022-09-09T23:47:21;15.23;97.76
66576;SHT31;53428;47.686;16.584;2022-09-09T23:52:21;15.16;97.69
66576;SHT31;53428;47.686;16.584;2022-09-09T23:57:24;15.11;97.94
